sensor_id;sensor_type;location;lat;lon;timestamp;P1;durP1;ratioP1;P2;durP2;ratioP2
21539;SDS011;10931;52.164;5.518;2023-02-10T00:01:40;3.72;;;2.35;;
21539;SDS011;10931;52.164;5.518;2023-02-10T00:04:15;5.05;;;2.30;;
21539;SDS011;10931;52.164;5.518;2023-02-10T00:06:41;3.83;;;2.30;;
21539;SDS011;10931;52.164;5.518;2023-02-10T00:09:09;5.00;;;2.58;;
21539;SDS011;10931;52.164;5.518;2023-02-10T00:11:40;3.65;;;2.00;;
21539;SDS011;10931;52.164;5.518;2023-02-10T00:14:25;4.25;;;2.03;;
21539;SDS011;10931;52.164;5.518;2023-02-10T00:16:56;3.90;;;2.15;;
21539;SDS011;10931;52.164;5.518;2023-02-10T00:19:24;3.78;;;2.10;;
21539;SDS011;10931;52.164;5.518;2023-02-10T00:21:51;3.70;;;2.17;;
21539;SDS011;10931;52.164;5.518;2023-02-10T00:24:22;3.35;;;1.88;;
21539;SDS011;10931;52.164;5.518;2023-02-10T00:26:50;4.38;;;1.95;;
21539;SDS011;10931;52.164;5.518;2023-02-10T00:29:21;3.22;;;1.90;;
21539;SDS011;10931;52.164;5.518;2023-02-10T00:31:52;5.10;;;2.45;;
21539;SDS011;10931;52.164;5.518;2023-02-10T00:34:18;4.82;;;2.03;;
21539;SDS011;10931;52.164;5.518;2023-02-10T00:37:05;4.68;;;2.28;;
21539;SDS011;10931;52.164;5.518;2023-02-10T00:39:40;3.88;;;1.63;;
21539;SDS011;10931;52.164;5.518;2023-02-10T00:42:13;3.95;;;2.08;;
21539;SDS011;10931;52.164;5.518;2023-02-10T00:44:41;4.22;;;2.30;;
21539;SDS011;10931;52.164;5.518;2023-02-10T00:47:09;3.75;;;2.03;;
21539;SDS011;10931;52.164;5.518;2023-02-10T00:49:43;6.03;;;1.83;;
21539;SDS011;10931;52.164;5.518;2023-02-10T00:52:11;6.95;;;2.45;;
21539;SDS011;10931;52.164;5.518;2023-02-10T00:54:39;4.10;;;2.13;;
21539;SDS011;10931;52.164;5.518;2023-02-10T00:57:11;4.35;;;1.98;;
21539;SDS011;10931;52.164;5.518;2023-02-10T00:59:40;5.45;;;1.90;;
21539;SDS011;10931;52.164;5.518;2023-02-10T01:02:13;5.65;;;2.45;;
21539;SDS011;10931;52.164;5.518;2023-02-10T01:04:42;7.28;;;2.10;;
21539;SDS011;10931;52.164;5.518;2023-02-10T01:07:10;3.67;;;1.80;;
21539;SDS011;10931;52.164;5.518;2023-02-10T01:09:41;4.20;;;2.03;;
21539;SDS011;10931;52.164;5.518;2023-02-10T01:12:10;3.83;;;2.60;;
21539;SDS011;10931;52.164;5.518;2023-02-10T01:14:39;4.90;;;2.08;;
21539;SDS011;10931;52.164;5.518;2023-02-10T01:17:08;4.43;;;2.00;;
21539;SDS011;10931;52.164;5.518;2023-02-10T01:19:42;3.58;;;1.88;;
21539;SDS011;10931;52.164;5.518;2023-02-10T01:22:15;2.80;;;1.65;;
21539;SDS011;10931;52.164;5.518;2023-02-10T01:24:43;3.03;;;1.88;;
21539;SDS011;10931;52.164;5.518;2023-02-10T01:27:19;6.15;;;2.25;;
21539;SDS011;10931;52.164;5.518;2023-02-10T01:29:45;3.20;;;1.90;;
21539;SDS011;10931;52.164;5.518;2023-02-10T01:32:13;4.05;;;1.90;;
21539;SDS011;10931;52.164;5.518;2023-02-10T01:34:38;3.60;;;1.83;;
21539;SDS011;10931;52.164;5.518;2023-02-10T01:37:09;4.70;;;2.10;;
21539;SDS011;10931;52.164;5.518;2023-02-10T01:39:35;3.30;;;2.10;;
21539;SDS011;10931;52.164;5.518;2023-02-10T01:42:08;4.22;;;2.10;;
21539;SDS011;10931;52.164;5.518;2023-02-10T01:47:12;3.30;;;1.80;;
21539;SDS011;10931;52.164;5.518;2023-02-10T01:49:42;3.40;;;1.63;;
21539;SDS011;10931;52.164;5.518;2023-02-10T01:52:22;3.50;;;1.90;;
21539;SDS011;10931;52.164;5.518;2023-02-10T01:54:58;4.32;;;1.85;;
21539;SDS011;10931;52.164;5.518;2023-02-10T01:57:31;2.65;;;2.13;;
21539;SDS011;10931;52.164;5.518;2023-02-10T02:00:06;3.80;;;2.08;;
21539;SDS011;10931;52.164;5.518;2023-02-10T02:02:39;3.03;;;1.67;;
21539;SDS011;10931;52.164;5.518;2023-02-10T02:08:08;4.45;;;2.35;;
21539;SDS011;10931;52.164;5.518;2023-02-10T02:10:38;4.55;;;2.20;;
21539;SDS011;10931;52.164;5.518;2023-02-10T02:16:54;3.00;;;1.75;;
21539;SDS011;10931;52.164;5.518;2023-02-10T02:34:02;3.17;;;1.75;;
21539;SDS011;10931;52.164;5.518;2023-02-10T02:36:39;3.50;;;1.60;;
21539;SDS011;10931;52.164;5.518;2023-02-10T02:39:17;3.03;;;1.67;;
21539;SDS011;10931;52.164;5.518;2023-02-10T02:41:46;2.97;;;1.90;;
21539;SDS011;10931;52.164;5.518;2023-02-10T02:44:14;2.67;;;1.67;;
21539;SDS011;10931;52.164;5.518;2023-02-10T02:46:51;2.17;;;1.63;;
21539;SDS011;10931;52.164;5.518;2023-02-10T02:49:43;3.35;;;1.88;;
21539;SDS011;10931;52.164;5.518;2023-02-10T02:52:23;3.15;;;2.05;;
21539;SDS011;10931;52.164;5.518;2023-02-10T02:55:19;3.63;;;1.80;;
21539;SDS011;10931;52.164;5.518;2023-02-10T03:01:02;4.32;;;1.92;;
21539;SDS011;10931;52.164;5.518;2023-02-10T03:03:34;2.28;;;1.40;;
21539;SDS011;10931;52.164;5.518;2023-02-10T03:06:09;2.97;;;2.05;;
21539;SDS011;10931;52.164;5.518;2023-02-10T03:08:36;3.30;;;1.63;;
21539;SDS011;10931;52.164;5.518;2023-02-10T03:11:04;2.35;;;1.60;;
21539;SDS011;10931;52.164;5.518;2023-02-10T03:13:30;2.40;;;1.48;;
21539;SDS011;10931;52.164;5.518;2023-02-10T03:16:01;2.47;;;1.70;;
21539;SDS011;10931;52.164;5.518;2023-02-10T03:18:28;2.17;;;1.67;;
21539;SDS011;10931;52.164;5.518;2023-02-10T03:20:54;4.45;;;1.63;;
21539;SDS011;10931;52.164;5.518;2023-02-10T03:23:22;3.08;;;1.60;;
21539;SDS011;10931;52.164;5.518;2023-02-10T03:25:54;3.67;;;1.63;;
21539;SDS011;10931;52.164;5.518;2023-02-10T03:28:28;1.83;;;1.35;;
21539;SDS011;10931;52.164;5.518;2023-02-10T03:31:03;3.00;;;1.67;;
21539;SDS011;10931;52.164;5.518;2023-02-10T03:33:38;3.85;;;1.70;;
21539;SDS011;10931;52.164;5.518;2023-02-10T03:36:03;3.15;;;1.80;;
21539;SDS011;10931;52.164;5.518;2023-02-10T03:38:32;2.70;;;1.83;;
21539;SDS011;10931;52.164;5.518;2023-02-10T03:40:58;2.70;;;1.67;;
21539;SDS011;10931;52.164;5.518;2023-02-10T03:43:26;3.55;;;1.83;;
21539;SDS011;10931;52.164;5.518;2023-02-10T03:45:52;2.03;;;1.48;;
21539;SDS011;10931;52.164;5.518;2023-02-10T03:48:23;2.88;;;1.80;;
21539;SDS011;10931;52.164;5.518;2023-02-10T03:50:59;3.00;;;2.13;;
21539;SDS011;10931;52.164;5.518;2023-02-10T03:53:32;3.47;;;1.58;;
21539;SDS011;10931;52.164;5.518;2023-02-10T03:56:02;2.33;;;1.50;;
21539;SDS011;10931;52.164;5.518;2023-02-10T03:58:42;2.40;;;1.60;;
21539;SDS011;10931;52.164;5.518;2023-02-10T04:01:17;3.15;;;1.50;;
21539;SDS011;10931;52.164;5.518;2023-02-10T04:03:43;2.97;;;1.50;;
21539;SDS011;10931;52.164;5.518;2023-02-10T04:06:14;4.13;;;1.90;;
21539;SDS011;10931;52.164;5.518;2023-02-10T04:08:43;2.40;;;1.65;;
21539;SDS011;10931;52.164;5.518;2023-02-10T04:11:09;2.42;;;1.50;;
21539;SDS011;10931;52.164;5.518;2023-02-10T04:13:36;3.20;;;1.90;;
21539;SDS011;10931;52.164;5.518;2023-02-10T04:16:03;2.42;;;1.65;;
21539;SDS011;10931;52.164;5.518;2023-02-10T04:18:30;3.03;;;1.83;;
21539;SDS011;10931;52.164;5.518;2023-02-10T04:21:00;3.72;;;2.00;;
21539;SDS011;10931;52.164;5.518;2023-02-10T04:23:29;2.90;;;1.67;;
21539;SDS011;10931;52.164;5.518;2023-02-10T04:25:55;3.78;;;2.00;;
21539;SDS011;10931;52.164;5.518;2023-02-10T04:28:21;1.92;;;1.58;;
21539;SDS011;10931;52.164;5.518;2023-02-10T04:30:51;3.80;;;1.83;;
21539;SDS011;10931;52.164;5.518;2023-02-10T04:33:34;2.67;;;1.65;;
21539;SDS011;10931;52.164;5.518;2023-02-10T04:36:00;2.38;;;1.60;;
21539;SDS011;10931;52.164;5.518;2023-02-10T04:38:37;3.20;;;1.65;;
21539;SDS011;10931;52.164;5.518;2023-02-10T04:41:08;3.05;;;1.90;;
21539;SDS011;10931;52.164;5.518;2023-02-10T04:43:37;3.50;;;1.90;;
21539;SDS011;10931;52.164;5.518;2023-02-10T04:46:02;2.65;;;1.73;;
21539;SDS011;10931;52.164;5.518;2023-02-10T04:48:29;3.60;;;1.88;;
21539;SDS011;10931;52.164;5.518;2023-02-10T04:51:06;4.07;;;2.00;;
21539;SDS011;10931;52.164;5.518;2023-02-10T04:53:32;3.15;;;1.67;;
21539;SDS011;10931;52.164;5.518;2023-02-10T04:56:01;4.20;;;1.90;;
21539;SDS011;10931;52.164;5.518;2023-02-10T04:58:31;2.65;;;1.70;;
21539;SDS011;10931;52.164;5.518;2023-02-10T05:00:59;2.70;;;1.65;;
21539;SDS011;10931;52.164;5.518;2023-02-10T05:03:25;3.38;;;1.90;;
21539;SDS011;10931;52.164;5.518;2023-02-10T05:06:04;5.68;;;2.22;;
21539;SDS011;10931;52.164;5.518;2023-02-10T05:08:32;2.17;;;1.60;;
21539;SDS011;10931;52.164;5.518;2023-02-10T05:11:01;3.50;;;1.90;;
21539;SDS011;10931;52.164;5.518;2023-02-10T05:13:27;4.35;;;1.80;;
21539;SDS011;10931;52.164;5.518;2023-02-10T05:15:53;3.38;;;1.80;;
21539;SDS011;10931;52.164;5.518;2023-02-10T05:18:18;4.25;;;2.05;;
21539;SDS011;10931;52.164;5.518;2023-02-10T05:20:44;3.05;;;1.98;;
21539;SDS011;10931;52.164;5.518;2023-02-10T05:23:10;2.50;;;1.65;;
21539;SDS011;10931;52.164;5.518;2023-02-10T05:25:35;4.20;;;1.98;;
21539;SDS011;10931;52.164;5.518;2023-02-10T05:28:01;3.05;;;1.90;;
21539;SDS011;10931;52.164;5.518;2023-02-10T05:30:27;2.35;;;1.67;;
21539;SDS011;10931;52.164;5.518;2023-02-10T05:32:54;3.47;;;1.60;;
21539;SDS011;10931;52.164;5.518;2023-02-10T05:35:20;3.50;;;1.83;;
21539;SDS011;10931;52.164;5.518;2023-02-10T05:37:48;2.63;;;1.80;;
21539;SDS011;10931;52.164;5.518;2023-02-10T05:40:17;2.10;;;1.35;;
21539;SDS011;10931;52.164;5.518;2023-02-10T05:42:42;2.97;;;2.00;;
21539;SDS011;10931;52.164;5.518;2023-02-10T05:45:11;3.40;;;1.83;;
21539;SDS011;10931;52.164;5.518;2023-02-10T05:47:38;2.65;;;1.75;;
21539;SDS011;10931;52.164;5.518;2023-02-10T05:50:04;3.70;;;2.13;;
21539;SDS011;10931;52.164;5.518;2023-02-10T05:52:33;3.50;;;2.05;;
21539;SDS011;10931;52.164;5.518;2023-02-10T05:54:59;3.10;;;1.98;;
21539;SDS011;10931;52.164;5.518;2023-02-10T05:57:25;3.72;;;2.08;;
21539;SDS011;10931;52.164;5.518;2023-02-10T05:59:54;3.13;;;1.67;;
21539;SDS011;10931;52.164;5.518;2023-02-10T06:02:28;3.03;;;1.80;;
21539;SDS011;10931;52.164;5.518;2023-02-10T06:04:56;4.28;;;2.30;;
21539;SDS011;10931;52.164;5.518;2023-02-10T06:07:21;3.85;;;2.33;;
21539;SDS011;10931;52.164;5.518;2023-02-10T06:09:48;2.67;;;1.85;;
21539;SDS011;10931;52.164;5.518;2023-02-10T06:12:13;3.13;;;1.95;;
21539;SDS011;10931;52.164;5.518;2023-02-10T06:14:39;3.83;;;1.83;;
21539;SDS011;10931;52.164;5.518;2023-02-10T06:17:05;3.63;;;1.90;;
21539;SDS011;10931;52.164;5.518;2023-02-10T06:19:37;4.45;;;2.17;;
21539;SDS011;10931;52.164;5.518;2023-02-10T06:22:05;3.33;;;2.05;;
21539;SDS011;10931;52.164;5.518;2023-02-10T06:24:34;3.65;;;1.88;;
21539;SDS011;10931;52.164;5.518;2023-02-10T06:27:08;2.95;;;1.90;;
21539;SDS011;10931;52.164;5.518;2023-02-10T06:29:34;3.80;;;1.90;;
21539;SDS011;10931;52.164;5.518;2023-02-10T06:31:59;4.53;;;2.10;;
21539;SDS011;10931;52.164;5.518;2023-02-10T06:34:25;3.85;;;1.88;;
21539;SDS011;10931;52.164;5.518;2023-02-10T06:36:54;3.65;;;2.03;;
21539;SDS011;10931;52.164;5.518;2023-02-10T06:39:21;3.75;;;2.10;;
21539;SDS011;10931;52.164;5.518;2023-02-10T06:41:47;3.80;;;2.20;;
21539;SDS011;10931;52.164;5.518;2023-02-10T06:44:13;2.80;;;1.92;;
21539;SDS011;10931;52.164;5.518;2023-02-10T06:46:39;4.45;;;1.95;;
21539;SDS011;10931;52.164;5.518;2023-02-10T06:49:04;3.80;;;2.30;;
21539;SDS011;10931;52.164;5.518;2023-02-10T06:51:35;3.60;;;2.10;;
21539;SDS011;10931;52.164;5.518;2023-02-10T06:54:09;3.28;;;1.70;;
21539;SDS011;10931;52.164;5.518;2023-02-10T06:56:34;3.38;;;2.10;;
21539;SDS011;10931;52.164;5.518;2023-02-10T06:59:00;3.47;;;2.08;;
21539;SDS011;10931;52.164;5.518;2023-02-10T07:01:25;3.53;;;1.98;;
21539;SDS011;10931;52.164;5.518;2023-02-10T07:03:53;3.20;;;1.90;;
21539;SDS011;10931;52.164;5.518;2023-02-10T07:06:19;3.00;;;1.92;;
21539;SDS011;10931;52.164;5.518;2023-02-10T07:08:45;3.70;;;1.77;;
21539;SDS011;10931;52.164;5.518;2023-02-10T07:11:18;2.50;;;1.50;;
21539;SDS011;10931;52.164;5.518;2023-02-10T07:13:43;2.90;;;1.90;;
21539;SDS011;10931;52.164;5.518;2023-02-10T07:16:09;4.22;;;2.05;;
21539;SDS011;10931;52.164;5.518;2023-02-10T07:18:39;3.22;;;2.03;;
21539;SDS011;10931;52.164;5.518;2023-02-10T07:21:05;3.10;;;2.05;;
21539;SDS011;10931;52.164;5.518;2023-02-10T07:23:34;3.15;;;1.83;;
21539;SDS011;10931;52.164;5.518;2023-02-10T07:26:04;4.05;;;2.17;;
21539;SDS011;10931;52.164;5.518;2023-02-10T07:28:31;4.57;;;2.25;;
21539;SDS011;10931;52.164;5.518;2023-02-10T07:30:57;2.67;;;1.83;;
21539;SDS011;10931;52.164;5.518;2023-02-10T07:33:23;3.83;;;2.15;;
21539;SDS011;10931;52.164;5.518;2023-02-10T07:35:49;2.90;;;1.95;;
21539;SDS011;10931;52.164;5.518;2023-02-10T07:38:15;5.95;;;2.25;;
21539;SDS011;10931;52.164;5.518;2023-02-10T07:40:40;3.08;;;1.77;;
21539;SDS011;10931;52.164;5.518;2023-02-10T07:43:08;3.28;;;1.88;;
21539;SDS011;10931;52.164;5.518;2023-02-10T07:45:34;3.03;;;1.85;;
21539;SDS011;10931;52.164;5.518;2023-02-10T07:48:04;3.78;;;2.10;;
21539;SDS011;10931;52.164;5.518;2023-02-10T07:50:30;4.55;;;2.10;;
21539;SDS011;10931;52.164;5.518;2023-02-10T07:52:56;3.00;;;2.00;;
21539;SDS011;10931;52.164;5.518;2023-02-10T07:55:29;3.42;;;1.98;;
21539;SDS011;10931;52.164;5.518;2023-02-10T07:57:58;4.00;;;1.90;;
21539;SDS011;10931;52.164;5.518;2023-02-10T08:00:27;3.20;;;1.90;;
21539;SDS011;10931;52.164;5.518;2023-02-10T08:02:52;3.47;;;1.95;;
21539;SDS011;10931;52.164;5.518;2023-02-10T08:05:20;3.47;;;1.83;;
21539;SDS011;10931;52.164;5.518;2023-02-10T08:07:49;3.30;;;1.48;;
21539;SDS011;10931;52.164;5.518;2023-02-10T08:10:27;2.70;;;1.98;;
21539;SDS011;10931;52.164;5.518;2023-02-10T08:12:53;3.42;;;1.90;;
21539;SDS011;10931;52.164;5.518;2023-02-10T08:15:26;3.70;;;2.10;;
21539;SDS011;10931;52.164;5.518;2023-02-10T08:17:54;3.60;;;2.05;;
21539;SDS011;10931;52.164;5.518;2023-02-10T08:20:23;3.45;;;2.10;;
21539;SDS011;10931;52.164;5.518;2023-02-10T08:22:52;3.80;;;1.90;;
21539;SDS011;10931;52.164;5.518;2023-02-10T08:25:23;4.00;;;1.92;;
21539;SDS011;10931;52.164;5.518;2023-02-10T08:27:48;4.45;;;1.80;;
21539;SDS011;10931;52.164;5.518;2023-02-10T08:30:15;3.90;;;2.00;;
21539;SDS011;10931;52.164;5.518;2023-02-10T08:32:41;3.17;;;1.65;;
21539;SDS011;10931;52.164;5.518;2023-02-10T08:35:12;4.88;;;2.10;;
21539;SDS011;10931;52.164;5.518;2023-02-10T08:37:38;2.90;;;1.60;;
21539;SDS011;10931;52.164;5.518;2023-02-10T08:40:04;3.10;;;1.63;;
21539;SDS011;10931;52.164;5.518;2023-02-10T08:42:31;2.92;;;1.80;;
21539;SDS011;10931;52.164;5.518;2023-02-10T08:47:50;2.85;;;1.73;;
21539;SDS011;10931;52.164;5.518;2023-02-10T08:50:15;3.70;;;1.90;;
21539;SDS011;10931;52.164;5.518;2023-02-10T08:52:41;3.42;;;1.90;;
21539;SDS011;10931;52.164;5.518;2023-02-10T08:55:10;2.30;;;1.65;;
21539;SDS011;10931;52.164;5.518;2023-02-10T09:00:18;3.72;;;1.42;;
21539;SDS011;10931;52.164;5.518;2023-02-10T09:02:51;3.30;;;1.38;;
21539;SDS011;10931;52.164;5.518;2023-02-10T09:05:17;2.95;;;1.67;;
21539;SDS011;10931;52.164;5.518;2023-02-10T09:07:44;3.83;;;1.70;;
21539;SDS011;10931;52.164;5.518;2023-02-10T09:10:13;2.65;;;1.70;;
21539;SDS011;10931;52.164;5.518;2023-02-10T09:12:40;2.20;;;1.27;;
21539;SDS011;10931;52.164;5.518;2023-02-10T09:15:07;2.17;;;1.45;;
21539;SDS011;10931;52.164;5.518;2023-02-10T09:17:33;2.83;;;1.92;;
21539;SDS011;10931;52.164;5.518;2023-02-10T09:20:02;2.80;;;1.65;;
21539;SDS011;10931;52.164;5.518;2023-02-10T09:22:31;3.50;;;2.05;;
21539;SDS011;10931;52.164;5.518;2023-02-10T09:24:57;4.15;;;2.03;;
21539;SDS011;10931;52.164;5.518;2023-02-10T09:27:24;3.15;;;1.70;;
21539;SDS011;10931;52.164;5.518;2023-02-10T09:29:50;3.35;;;1.83;;
21539;SDS011;10931;52.164;5.518;2023-02-10T09:32:16;2.95;;;1.60;;
21539;SDS011;10931;52.164;5.518;2023-02-10T09:34:44;3.20;;;1.70;;
21539;SDS011;10931;52.164;5.518;2023-02-10T09:37:10;2.85;;;1.70;;
21539;SDS011;10931;52.164;5.518;2023-02-10T09:39:38;3.55;;;2.03;;
21539;SDS011;10931;52.164;5.518;2023-02-10T09:42:08;2.60;;;1.58;;
21539;SDS011;10931;52.164;5.518;2023-02-10T09:44:51;2.53;;;1.60;;
21539;SDS011;10931;52.164;5.518;2023-02-10T09:50:07;2.78;;;1.67;;
21539;SDS011;10931;52.164;5.518;2023-02-10T09:55:43;2.85;;;1.63;;
21539;SDS011;10931;52.164;5.518;2023-02-10T09:58:21;5.00;;;2.13;;
21539;SDS011;10931;52.164;5.518;2023-02-10T10:00:55;3.28;;;1.70;;
21539;SDS011;10931;52.164;5.518;2023-02-10T10:03:38;3.75;;;2.20;;
21539;SDS011;10931;52.164;5.518;2023-02-10T10:06:17;3.35;;;1.88;;
21539;SDS011;10931;52.164;5.518;2023-02-10T10:11:37;4.90;;;2.03;;
21539;SDS011;10931;52.164;5.518;2023-02-10T10:14:33;4.10;;;2.00;;
21539;SDS011;10931;52.164;5.518;2023-02-10T10:19:55;4.05;;;2.00;;
21539;SDS011;10931;52.164;5.518;2023-02-10T10:36:43;3.78;;;1.67;;
21539;SDS011;10931;52.164;5.518;2023-02-10T10:44:41;3.05;;;1.70;;
21539;SDS011;10931;52.164;5.518;2023-02-10T10:47:16;3.38;;;1.98;;
21539;SDS011;10931;52.164;5.518;2023-02-10T10:49:48;4.43;;;1.92;;
21539;SDS011;10931;52.164;5.518;2023-02-10T10:52:30;3.95;;;2.35;;
21539;SDS011;10931;52.164;5.518;2023-02-10T10:55:05;2.83;;;1.85;;
21539;SDS011;10931;52.164;5.518;2023-02-10T10:58:25;4.30;;;1.55;;
21539;SDS011;10931;52.164;5.518;2023-02-10T11:00:58;4.47;;;2.08;;
21539;SDS011;10931;52.164;5.518;2023-02-10T11:03:26;4.30;;;1.80;;
21539;SDS011;10931;52.164;5.518;2023-02-10T11:06:14;6.78;;;1.92;;
21539;SDS011;10931;52.164;5.518;2023-02-10T11:08:45;4.75;;;1.67;;
21539;SDS011;10931;52.164;5.518;2023-02-10T11:11:40;2.92;;;1.30;;
21539;SDS011;10931;52.164;5.518;2023-02-10T11:14:26;2.40;;;1.30;;
21539;SDS011;10931;52.164;5.518;2023-02-10T11:16:53;3.63;;;1.77;;
21539;SDS011;10931;52.164;5.518;2023-02-10T11:19:27;3.03;;;1.20;;
21539;SDS011;10931;52.164;5.518;2023-02-10T11:21:58;3.50;;;1.40;;
21539;SDS011;10931;52.164;5.518;2023-02-10T11:24:30;2.45;;;1.15;;
21539;SDS011;10931;52.164;5.518;2023-02-10T11:26:59;3.50;;;1.55;;
21539;SDS011;10931;52.164;5.518;2023-02-10T11:29:30;3.25;;;1.23;;
21539;SDS011;10931;52.164;5.518;2023-02-10T11:32:05;4.20;;;1.48;;
21539;SDS011;10931;52.164;5.518;2023-02-10T11:34:38;3.78;;;1.10;;
21539;SDS011;10931;52.164;5.518;2023-02-10T11:37:12;3.30;;;1.55;;
21539;SDS011;10931;52.164;5.518;2023-02-10T11:40:16;4.95;;;1.52;;
21539;SDS011;10931;52.164;5.518;2023-02-10T11:42:59;2.75;;;1.30;;
21539;SDS011;10931;52.164;5.518;2023-02-10T11:45:38;2.95;;;1.40;;
21539;SDS011;10931;52.164;5.518;2023-02-10T11:50:43;3.70;;;1.52;;
21539;SDS011;10931;52.164;5.518;2023-02-10T11:53:25;3.55;;;1.30;;
21539;SDS011;10931;52.164;5.518;2023-02-10T11:58:59;3.85;;;1.30;;
21539;SDS011;10931;52.164;5.518;2023-02-10T12:07:04;4.95;;;1.75;;
21539;SDS011;10931;52.164;5.518;2023-02-10T12:10:57;2.45;;;1.65;;
21539;SDS011;10931;52.164;5.518;2023-02-10T12:12:59;4.00;;;1.45;;
21539;SDS011;10931;52.164;5.518;2023-02-10T12:24:17;3.63;;;1.40;;
21539;SDS011;10931;52.164;5.518;2023-02-10T12:38:16;2.60;;;1.20;;
21539;SDS011;10931;52.164;5.518;2023-02-10T12:47:08;3.90;;;1.40;;
21539;SDS011;10931;52.164;5.518;2023-02-10T12:55:20;2.50;;;1.15;;
21539;SDS011;10931;52.164;5.518;2023-02-10T12:57:55;3.28;;;1.50;;
21539;SDS011;10931;52.164;5.518;2023-02-10T13:00:47;2.67;;;1.33;;
21539;SDS011;10931;52.164;5.518;2023-02-10T13:06:44;3.15;;;1.50;;
21539;SDS011;10931;52.164;5.518;2023-02-10T13:12:56;1.73;;;0.85;;
21539;SDS011;10931;52.164;5.518;2023-02-10T13:15:26;2.50;;;1.30;;
21539;SDS011;10931;52.164;5.518;2023-02-10T13:18:04;1.98;;;1.00;;
21539;SDS011;10931;52.164;5.518;2023-02-10T13:21:31;1.95;;;1.20;;
21539;SDS011;10931;52.164;5.518;2023-02-10T13:24:24;1.98;;;1.02;;
21539;SDS011;10931;52.164;5.518;2023-02-10T13:36:05;2.28;;;1.33;;
21539;SDS011;10931;52.164;5.518;2023-02-10T13:38:38;2.88;;;1.40;;
21539;SDS011;10931;52.164;5.518;2023-02-10T13:41:05;2.38;;;1.33;;
21539;SDS011;10931;52.164;5.518;2023-02-10T13:44:05;1.92;;;1.20;;
21539;SDS011;10931;52.164;5.518;2023-02-10T13:46:30;3.17;;;1.27;;
21539;SDS011;10931;52.164;5.518;2023-02-10T13:49:14;1.83;;;1.17;;
21539;SDS011;10931;52.164;5.518;2023-02-10T13:51:50;2.00;;;1.20;;
21539;SDS011;10931;52.164;5.518;2023-02-10T13:54:26;2.83;;;1.20;;
21539;SDS011;10931;52.164;5.518;2023-02-10T13:56:55;2.17;;;1.15;;
21539;SDS011;10931;52.164;5.518;2023-02-10T13:59:23;2.58;;;1.30;;
21539;SDS011;10931;52.164;5.518;2023-02-10T14:02:14;2.35;;;1.35;;
21539;SDS011;10931;52.164;5.518;2023-02-10T14:04:49;3.50;;;1.58;;
21539;SDS011;10931;52.164;5.518;2023-02-10T14:10:04;3.22;;;1.48;;
21539;SDS011;10931;52.164;5.518;2023-02-10T14:13:05;2.13;;;1.02;;
21539;SDS011;10931;52.164;5.518;2023-02-10T14:15:43;2.47;;;1.33;;
21539;SDS011;10931;52.164;5.518;2023-02-10T14:18:31;3.22;;;1.60;;
21539;SDS011;10931;52.164;5.518;2023-02-10T14:21:03;3.42;;;1.50;;
21539;SDS011;10931;52.164;5.518;2023-02-10T14:23:56;5.55;;;1.30;;
21539;SDS011;10931;52.164;5.518;2023-02-10T14:26:34;2.08;;;1.35;;
21539;SDS011;10931;52.164;5.518;2023-02-10T14:29:00;3.35;;;1.35;;
21539;SDS011;10931;52.164;5.518;2023-02-10T14:31:34;3.45;;;1.33;;
21539;SDS011;10931;52.164;5.518;2023-02-10T14:37:02;1.67;;;1.20;;
21539;SDS011;10931;52.164;5.518;2023-02-10T14:39:40;3.83;;;1.50;;
21539;SDS011;10931;52.164;5.518;2023-02-10T14:42:23;2.35;;;1.23;;
21539;SDS011;10931;52.164;5.518;2023-02-10T14:45:00;3.70;;;1.70;;
21539;SDS011;10931;52.164;5.518;2023-02-10T14:47:33;3.90;;;1.80;;
21539;SDS011;10931;52.164;5.518;2023-02-10T14:52:54;2.53;;;1.52;;
21539;SDS011;10931;52.164;5.518;2023-02-10T14:55:32;3.13;;;1.52;;
21539;SDS011;10931;52.164;5.518;2023-02-10T14:58:27;2.50;;;1.70;;
21539;SDS011;10931;52.164;5.518;2023-02-10T15:01:14;3.60;;;1.90;;
21539;SDS011;10931;52.164;5.518;2023-02-10T15:03:44;4.32;;;2.17;;
21539;SDS011;10931;52.164;5.518;2023-02-10T15:06:21;2.97;;;1.45;;
21539;SDS011;10931;52.164;5.518;2023-02-10T15:08:56;3.47;;;1.70;;
21539;SDS011;10931;52.164;5.518;2023-02-10T15:11:55;6.60;;;1.80;;
21539;SDS011;10931;52.164;5.518;2023-02-10T15:17:50;3.67;;;1.60;;
21539;SDS011;10931;52.164;5.518;2023-02-10T15:20:31;3.95;;;1.48;;
21539;SDS011;10931;52.164;5.518;2023-02-10T15:33:54;2.63;;;1.35;;
21539;SDS011;10931;52.164;5.518;2023-02-10T15:37:13;2.85;;;1.63;;
21539;SDS011;10931;52.164;5.518;2023-02-10T15:39:58;3.08;;;1.48;;
21539;SDS011;10931;52.164;5.518;2023-02-10T15:45:16;3.20;;;1.73;;
21539;SDS011;10931;52.164;5.518;2023-02-10T15:47:54;2.10;;;1.25;;
21539;SDS011;10931;52.164;5.518;2023-02-10T15:50:42;3.83;;;1.65;;
21539;SDS011;10931;52.164;5.518;2023-02-10T15:53:08;2.20;;;1.50;;
21539;SDS011;10931;52.164;5.518;2023-02-10T15:55:37;2.63;;;1.60;;
21539;SDS011;10931;52.164;5.518;2023-02-10T15:58:09;3.47;;;1.77;;
21539;SDS011;10931;52.164;5.518;2023-02-10T16:00:36;6.25;;;2.00;;
21539;SDS011;10931;52.164;5.518;2023-02-10T16:03:07;2.63;;;1.60;;
21539;SDS011;10931;52.164;5.518;2023-02-10T16:05:33;3.53;;;2.10;;
21539;SDS011;10931;52.164;5.518;2023-02-10T16:08:19;3.22;;;1.80;;
21539;SDS011;10931;52.164;5.518;2023-02-10T16:10:49;3.58;;;1.75;;
21539;SDS011;10931;52.164;5.518;2023-02-10T16:13:20;4.70;;;2.20;;
21539;SDS011;10931;52.164;5.518;2023-02-10T16:15:46;4.47;;;2.30;;
21539;SDS011;10931;52.164;5.518;2023-02-10T16:18:17;2.13;;;1.55;;
21539;SDS011;10931;52.164;5.518;2023-02-10T16:20:46;4.72;;;2.20;;
21539;SDS011;10931;52.164;5.518;2023-02-10T16:23:13;3.83;;;1.98;;
21539;SDS011;10931;52.164;5.518;2023-02-10T16:25:44;3.95;;;2.22;;
21539;SDS011;10931;52.164;5.518;2023-02-10T16:28:31;3.72;;;2.13;;
21539;SDS011;10931;52.164;5.518;2023-02-10T16:31:07;3.25;;;2.03;;
21539;SDS011;10931;52.164;5.518;2023-02-10T16:33:33;4.68;;;2.13;;
21539;SDS011;10931;52.164;5.518;2023-02-10T16:36:04;3.47;;;2.13;;
21539;SDS011;10931;52.164;5.518;2023-02-10T16:38:30;4.68;;;2.10;;
21539;SDS011;10931;52.164;5.518;2023-02-10T16:40:58;3.95;;;2.33;;
21539;SDS011;10931;52.164;5.518;2023-02-10T16:43:25;4.28;;;2.38;;
21539;SDS011;10931;52.164;5.518;2023-02-10T16:45:53;4.45;;;2.35;;
21539;SDS011;10931;52.164;5.518;2023-02-10T16:48:19;4.68;;;2.50;;
21539;SDS011;10931;52.164;5.518;2023-02-10T16:50:54;5.28;;;2.85;;
21539;SDS011;10931;52.164;5.518;2023-02-10T16:53:25;4.50;;;2.13;;
21539;SDS011;10931;52.164;5.518;2023-02-10T16:55:50;6.45;;;2.92;;
21539;SDS011;10931;52.164;5.518;2023-02-10T16:58:27;5.25;;;2.60;;
21539;SDS011;10931;52.164;5.518;2023-02-10T17:00:56;4.97;;;2.63;;
21539;SDS011;10931;52.164;5.518;2023-02-10T17:03:22;5.18;;;2.53;;
21539;SDS011;10931;52.164;5.518;2023-02-10T17:05:50;4.05;;;2.60;;
21539;SDS011;10931;52.164;5.518;2023-02-10T17:08:16;6.35;;;2.85;;
21539;SDS011;10931;52.164;5.518;2023-02-10T17:10:42;6.05;;;2.80;;
21539;SDS011;10931;52.164;5.518;2023-02-10T17:13:10;6.70;;;3.17;;
21539;SDS011;10931;52.164;5.518;2023-02-10T17:15:36;7.40;;;2.97;;
21539;SDS011;10931;52.164;5.518;2023-02-10T17:18:02;5.45;;;2.45;;
21539;SDS011;10931;52.164;5.518;2023-02-10T17:20:29;4.18;;;2.78;;
21539;SDS011;10931;52.164;5.518;2023-02-10T17:23:01;5.05;;;2.95;;
21539;SDS011;10931;52.164;5.518;2023-02-10T17:25:27;6.10;;;3.03;;
21539;SDS011;10931;52.164;5.518;2023-02-10T17:27:56;5.60;;;2.70;;
21539;SDS011;10931;52.164;5.518;2023-02-10T17:30:25;5.28;;;2.83;;
21539;SDS011;10931;52.164;5.518;2023-02-10T17:33:09;4.75;;;2.33;;
21539;SDS011;10931;52.164;5.518;2023-02-10T17:35:52;4.70;;;2.50;;
21539;SDS011;10931;52.164;5.518;2023-02-10T17:38:20;5.40;;;3.10;;
21539;SDS011;10931;52.164;5.518;2023-02-10T17:41:08;4.97;;;2.97;;
21539;SDS011;10931;52.164;5.518;2023-02-10T17:43:33;4.18;;;2.70;;
21539;SDS011;10931;52.164;5.518;2023-02-10T17:46:02;4.43;;;2.70;;